createdAt,value
2024-05-09T00:02:27.899Z,14.00
2024-05-09T00:07:30.931Z,7.50
2024-05-09T00:12:33.902Z,11.00
2024-05-09T00:17:37.140Z,10.00
2024-05-09T00:22:40.104Z,11.00
2024-05-09T00:27:43.065Z,8.00
2024-05-09T00:32:46.071Z,14.00
2024-05-09T00:37:49.234Z,15.00
2024-05-09T00:42:52.176Z,12.50
2024-05-09T00:47:55.844Z,16.00
2024-05-09T00:52:59.028Z,12.50
2024-05-09T00:58:02.921Z,12.50
2024-05-09T01:03:06.260Z,15.00
2024-05-09T01:08:10.523Z,11.00
2024-05-09T01:13:13.701Z,16.00
2024-05-09T01:18:16.944Z,13.50
2024-05-09T01:23:19.991Z,16.00
2024-05-09T01:28:22.831Z,10.00
2024-05-09T01:33:26.088Z,14.00
2024-05-09T01:38:29.329Z,9.00
2024-05-09T01:43:32.418Z,11.00
2024-05-09T01:48:35.386Z,16.00
2024-05-09T01:53:38.464Z,13.00
2024-05-09T01:58:41.671Z,11.67
2024-05-09T02:03:47.910Z,17.67
2024-05-09T02:08:50.975Z,13.00
2024-05-09T02:13:54.181Z,14.00
2024-05-09T02:18:57.199Z,13.00
2024-05-09T02:24:00.838Z,14.50
2024-05-09T02:29:03.953Z,14.00
2024-05-09T02:34:06.935Z,13.00
2024-05-09T02:39:09.990Z,13.00
2024-05-09T02:44:13.012Z,14.50
2024-05-09T02:49:16.382Z,11.00
2024-05-09T02:54:19.366Z,14.00
2024-05-09T02:59:22.546Z,12.00
2024-05-09T03:04:25.746Z,18.00
2024-05-09T03:09:29.256Z,13.50
2024-05-09T03:14:32.206Z,13.50
2024-05-09T03:19:36.508Z,8.00
2024-05-09T03:24:39.554Z,17.00
2024-05-09T03:29:42.836Z,12.00
2024-05-09T03:34:45.858Z,13.00
2024-05-09T03:39:48.972Z,8.00
2024-05-09T03:44:52.660Z,15.00
2024-05-09T03:49:55.875Z,19.50
2024-05-09T03:54:58.868Z,15.00
2024-05-09T04:00:02.870Z,11.50
2024-05-09T04:05:07.476Z,15.00
2024-05-09T04:10:17.116Z,10.00
2024-05-09T04:15:26.973Z,15.00
2024-05-09T04:20:37.704Z,10.67
2024-05-09T04:25:45.117Z,21.00
2024-05-09T04:30:48.684Z,22.50
2024-05-09T04:35:51.689Z,16.50
2024-05-09T04:40:54.639Z,16.00
2024-05-09T04:45:57.711Z,13.00
2024-05-09T04:51:01.990Z,16.00
2024-05-09T04:56:06.436Z,14.00
2024-05-09T05:01:09.390Z,13.00
2024-05-09T05:06:12.307Z,12.00
2024-05-09T05:11:15.238Z,10.00
2024-05-09T05:16:18.460Z,11.00
2024-05-09T05:21:21.618Z,9.50
2024-05-09T05:26:25.762Z,11.00
2024-05-09T05:31:30.858Z,10.00
2024-05-09T05:36:33.717Z,11.33
2024-05-09T05:41:36.778Z,9.00
2024-05-09T05:46:40.152Z,12.00
2024-05-09T05:51:43.099Z,11.00
2024-05-09T05:56:46.099Z,9.67
2024-05-09T06:01:49.424Z,9.00
2024-05-09T06:06:52.369Z,7.00
2024-05-09T06:11:55.259Z,9.67
2024-05-09T06:16:58.565Z,9.00
2024-05-09T06:22:03.034Z,10.00
2024-05-09T06:27:06.205Z,11.00
2024-05-09T06:32:09.226Z,10.00
2024-05-09T06:37:12.249Z,11.00
2024-05-09T06:42:15.238Z,9.50
2024-05-09T06:47:18.213Z,8.00
2024-05-09T06:52:21.371Z,10.00
2024-05-09T06:57:24.397Z,14.00
2024-05-09T07:02:28.058Z,6.00
2024-05-09T07:07:31.034Z,10.00
2024-05-09T07:12:34.049Z,10.00
2024-05-09T07:17:38.228Z,11.00
2024-05-09T07:22:41.474Z,12.67
2024-05-09T07:27:44.365Z,16.00
2024-05-09T07:32:47.760Z,11.67
2024-05-09T07:37:51.478Z,10.50
2024-05-09T07:42:54.422Z,8.00
2024-05-09T07:49:44.283Z,10.00
2024-05-09T07:53:38.588Z,12.00
2024-05-09T07:58:44.185Z,11.00
2024-05-09T08:03:47.359Z,11.00
2024-05-09T08:08:50.851Z,8.00
2024-05-09T08:13:53.761Z,11.50
2024-05-09T08:18:56.908Z,7.00
2024-05-09T08:23:59.976Z,6.00
2024-05-09T08:29:03.412Z,9.00
2024-05-09T08:34:07.083Z,8.00
2024-05-09T08:39:10.447Z,9.50
2024-05-09T08:44:13.798Z,5.00
2024-05-09T08:49:17.007Z,6.00
2024-05-09T08:54:21.317Z,8.00
2024-05-09T08:59:28.094Z,6.00
2024-05-09T09:04:31.486Z,4.00
2024-05-09T09:09:35.711Z,7.00
2024-05-09T09:14:38.700Z,7.00
2024-05-09T09:19:42.644Z,10.00
2024-05-09T09:24:45.843Z,6.00
2024-05-09T09:29:49.145Z,7.00
2024-05-09T09:34:52.181Z,4.00
2024-05-09T09:39:55.226Z,8.00
2024-05-09T09:45:04.672Z,6.00
2024-05-09T09:50:14.331Z,6.00
2024-05-09T09:55:22.168Z,5.67
2024-05-09T10:00:32.449Z,6.50
2024-05-09T10:05:37.238Z,6.00
2024-05-09T10:10:46.868Z,5.00
2024-05-09T10:15:54.521Z,5.00
2024-05-09T10:20:59.406Z,6.00
2024-05-09T10:26:05.233Z,6.00
2024-05-09T10:31:13.906Z,6.00
2024-05-09T10:36:27.372Z,8.00
2024-05-09T10:41:30.371Z,7.33
2024-05-09T10:46:33.389Z,8.50
2024-05-09T10:51:37.298Z,6.00
2024-05-09T10:56:42.007Z,9.00
2024-05-09T11:01:45.132Z,7.50
2024-05-09T11:06:48.293Z,5.50
2024-05-09T11:11:51.482Z,7.50
2024-05-09T11:17:01.998Z,8.00
2024-05-09T11:22:05.382Z,5.50
2024-05-09T11:27:08.245Z,7.33
2024-05-09T11:32:13.660Z,5.00
2024-05-09T11:37:16.776Z,7.00
2024-05-09T11:42:20.929Z,7.50
2024-05-09T11:47:24.757Z,6.00
2024-05-09T11:52:27.875Z,8.00
2024-05-09T11:57:30.819Z,4.00
2024-05-09T12:02:34.066Z,4.50
2024-05-09T12:07:37.084Z,5.00
2024-05-09T12:12:39.957Z,6.00
2024-05-09T12:17:43.277Z,4.00
2024-05-09T12:22:47.714Z,6.00
2024-05-09T12:27:51.106Z,6.00
2024-05-09T12:32:54.219Z,4.00
2024-05-09T12:37:57.275Z,8.00
2024-05-09T12:43:00.282Z,5.00
2024-05-09T12:48:04.776Z,4.50
2024-05-09T12:53:07.869Z,6.00
2024-05-09T12:58:11.117Z,4.00
2024-05-09T13:03:15.403Z,2.00
2024-05-09T13:08:18.575Z,6.00
2024-05-09T13:13:21.641Z,8.67
2024-05-09T13:18:25.325Z,4.50
2024-05-09T13:23:28.387Z,5.00
2024-05-09T13:28:33.542Z,4.00
2024-05-09T13:33:36.735Z,7.00
2024-05-09T13:38:39.696Z,5.00
2024-05-09T13:43:42.924Z,5.00
2024-05-09T13:48:45.951Z,4.50
2024-05-09T13:53:49.081Z,5.00
2024-05-09T13:58:52.291Z,5.00
2024-05-09T14:03:55.463Z,4.33
2024-05-09T14:08:58.516Z,4.00
2024-05-09T14:14:01.440Z,5.00
2024-05-09T14:19:04.784Z,2.00
2024-05-09T14:24:07.778Z,5.67
2024-05-09T14:29:10.808Z,5.00
2024-05-09T14:34:14.008Z,5.50
2024-05-09T14:39:17.155Z,6.00
2024-05-09T14:44:20.050Z,7.00
2024-05-09T14:49:23.020Z,5.00
2024-05-09T14:54:25.972Z,4.00
2024-05-09T14:59:29.297Z,5.00
2024-05-09T15:04:32.429Z,5.00
2024-05-09T15:09:36.359Z,4.00
2024-05-09T15:14:39.604Z,3.00
2024-05-09T15:19:45.267Z,3.50
2024-05-09T15:24:48.516Z,8.00
2024-05-09T15:29:51.811Z,6.00
2024-05-09T15:35:02.572Z,3.33
2024-05-09T15:40:12.116Z,6.00
2024-05-09T15:45:18.280Z,5.00
2024-05-09T15:50:28.839Z,6.00
2024-05-09T15:55:39.354Z,6.00
2024-05-09T16:00:44.799Z,7.00
2024-05-09T16:05:50.515Z,7.00
2024-05-09T16:10:53.768Z,7.00
2024-05-09T16:15:57.421Z,7.00
2024-05-09T16:21:01.650Z,4.50
2024-05-09T16:26:05.633Z,7.00
2024-05-09T16:31:08.646Z,6.00
2024-05-09T16:36:11.598Z,6.50
2024-05-09T16:41:15.611Z,3.50
2024-05-09T16:46:18.812Z,7.00
2024-05-09T16:51:22.075Z,7.00
2024-05-09T16:56:26.280Z,6.50
2024-05-09T17:01:30.914Z,7.50
2024-05-09T17:06:34.169Z,10.00
2024-05-09T17:11:37.335Z,12.00
2024-05-09T17:16:40.404Z,9.33
2024-05-09T17:21:43.499Z,9.50
2024-05-09T17:26:46.604Z,10.50
2024-05-09T17:31:49.624Z,6.00
2024-05-09T17:36:52.780Z,6.50
2024-05-09T17:41:55.742Z,5.00
2024-05-09T17:46:58.743Z,3.00
2024-05-09T17:52:01.861Z,5.50
2024-05-09T17:57:08.595Z,7.00
2024-05-09T18:02:11.938Z,5.00
2024-05-09T18:07:15.327Z,6.00
2024-05-09T18:12:18.434Z,11.00
2024-05-09T18:17:23.559Z,15.00
2024-05-09T18:22:28.282Z,14.00
2024-05-09T18:27:31.582Z,11.00
2024-05-09T18:32:34.911Z,12.00
2024-05-09T18:37:42.778Z,15.00
2024-05-09T18:42:45.783Z,12.00
2024-05-09T18:47:49.325Z,10.67
2024-05-09T18:52:52.571Z,13.00
2024-05-09T18:57:55.582Z,14.00
2024-05-09T19:02:58.964Z,11.50
2024-05-09T19:08:02.180Z,11.00
2024-05-09T19:13:10.165Z,12.00
2024-05-09T19:18:25.937Z,13.67
2024-05-09T19:23:32.596Z,3.33
2024-05-09T19:28:41.259Z,13.00
2024-05-09T19:33:44.405Z,11.50
2024-05-09T19:38:51.604Z,16.00
2024-05-09T19:43:55.600Z,11.00
2024-05-09T19:48:58.865Z,16.00
2024-05-09T19:54:04.113Z,16.00
2024-05-09T19:59:07.102Z,20.00
2024-05-09T20:04:10.498Z,23.50
2024-05-09T20:11:08.788Z,25.50
2024-05-09T20:16:12.158Z,19.50
2024-05-09T20:21:15.665Z,20.00
2024-05-09T20:26:19.650Z,17.50
2024-05-09T20:31:25.566Z,21.00
2024-05-09T20:36:28.857Z,18.00
2024-05-09T20:41:33.644Z,20.00
2024-05-09T20:46:38.267Z,20.50
2024-05-09T20:51:41.325Z,18.00
2024-05-09T20:56:44.445Z,18.00
2024-05-09T21:01:49.297Z,24.00
2024-05-09T21:06:52.926Z,25.33
2024-05-09T21:11:56.154Z,22.00
2024-05-09T21:16:59.335Z,20.50
2024-05-09T21:22:03.271Z,26.00
2024-05-09T21:27:06.293Z,21.00
2024-05-09T21:32:11.138Z,23.50
2024-05-09T21:37:16.782Z,20.00
2024-05-09T21:42:20.084Z,21.50
2024-05-09T21:47:23.820Z,23.00
2024-05-09T21:52:27.112Z,25.50
2024-05-09T21:57:30.018Z,20.00
2024-05-09T22:02:37.064Z,21.00
2024-05-09T22:07:40.538Z,20.00
2024-05-09T22:12:43.477Z,16.00
2024-05-09T22:17:46.599Z,13.00
2024-05-09T22:22:49.637Z,16.00
2024-05-09T22:27:53.000Z,17.67
2024-05-09T22:32:56.562Z,20.00
2024-05-09T22:38:00.048Z,21.00
2024-05-09T22:43:04.594Z,26.00
2024-05-09T22:48:09.102Z,18.00
2024-05-09T22:53:12.914Z,16.00
2024-05-09T22:58:16.325Z,18.00
2024-05-09T23:03:21.516Z,12.33
2024-05-09T23:08:25.236Z,16.00
2024-05-09T23:13:28.362Z,17.50
2024-05-09T23:18:31.491Z,18.50
2024-05-09T23:23:34.572Z,17.50
2024-05-09T23:28:37.670Z,19.00
2024-05-09T23:33:47.204Z,15.00
2024-05-09T23:38:50.454Z,14.00
2024-05-09T23:43:53.434Z,16.33
2024-05-09T23:48:56.429Z,15.00
2024-05-09T23:53:59.427Z,14.00
2024-05-09T23:59:02.364Z,17.00
